Metar Cercanos

 

LEPA - Palma De Mallorc, Spain
Distance from station: ONO 38km
Actualización: 20/09/2018 00:30
Despejado
Despejado
 Viento del varies
Viento: varies 4 km/h
Temperatura: 21°C
Rocío: 21°C
Humedad: 100%
Barómetro: 1020 hPa
Resumen: Despejado
Visibility: greater than 10 km
2018/09/19 22:30 LEPA 192230Z VRB02KT CAVOK 21/21 Q1020 NOSIG
LEMH - Mahon/Menorca Is, Spain
Distance from station: ENE 105km
Actualización: 20/09/2018 00:30
Few Clouds
Few Clouds
 Viento del NO
Viento: NO 6 km/h
Barómetro: 1020 hPa
Clouds: Few Clouds
Visibility: 10 km
Cloud details: Few Clouds 457 m
2018/09/19 22:30 LEMH 192230Z 31003KT 9999 FEW015 ///// Q1020
 
LEIB - Ibiza/Es Codola, Spain
Distance from station: OSO 165km
Actualización: 20/09/2018 00:30
Few Clouds
Few Clouds
 Viento del calm
Viento: Calma
Temperatura: 22°C
Rocío: 20°C
Humedad: 88%
Barómetro: 1021 hPa
Clouds: Few Clouds
Visibility: 10 km
Cloud details: Few Clouds 610 m
2018/09/19 22:30 LEIB 192230Z 00000KT 9999 FEW020 22/20 Q1021 NOSIG
LEBL - Barcelona Airpor, Spain
Distance from station: NNO 225km
Actualización: 20/09/2018 00:30
Despejado
Despejado
 Viento del NO
Viento: NO 6 km/h
Temperatura: 23°C
Rocío: 20°C
Humedad: 83%
Barómetro: 1021 hPa
Resumen: Despejado
Visibility: greater than 10 km
2018/09/19 22:30 LEBL 192230Z 32003KT CAVOK 23/20 Q1021 NOSIG
 
LEVC - Valencia (civ/Mi, Spain
Distance from station: NO 188km
Actualización: 20/09/2018 00:30
Despejado
Despejado
 Viento del ONO
Viento: ONO 7 km/h
Temperatura: 23°C
Rocío: 21°C
Humedad: 89%
Barómetro: 1021 hPa
Resumen: Despejado
Visibility: greater than 10 km
2018/09/19 22:30 LEVC 192230Z 30004KT CAVOK 23/21 Q1021 NOSIG
LEGE - Gerona/Costa Bra, Spain
Distance from station: N 276km
Actualización: 20/09/2018 00:30
Despejado
Despejado
 Viento del calm
Viento: Calma
Temperatura: 18°C
Rocío: 18°C
Humedad: 100%
Barómetro: 1021 hPa
Resumen: Despejado
Visibility: greater than 10 km
2018/09/19 22:30 LEGE 192230Z 00000KT CAVOK 18/18 Q1021
 
LEAL - Alicante/El Alte, Spain
Distance from station: OSO 344km
Actualización: 20/09/2018 00:30
Parcialmente nuboso
Parcialmente nuboso
 Viento del varies
Viento: varies 2 km/h
Temperatura: 24°C
Rocío: 22°C
Humedad: 89%
Barómetro: 1021 hPa
Clouds: Parcialmente nuboso
Visibility: 10 km
Cloud details: Parcialmente nuboso 488 m
Parcialmente nuboso 732 m
2018/09/19 22:30 LEAL 192230Z VRB01KT 9999 SCT016 SCT024 24/22 Q1021 NOSIG
LEAM - Almeria Airport, Spain
Distance from station: SSO 56km
Actualización: 20/09/2018 00:30
Few Clouds
Few Clouds
 Viento del ENE
Viento: ENE 6 km/h
Temperatura: 25°C
Rocío: 22°C
Humedad: 83%
Barómetro: 1020 hPa
Clouds: Few Clouds
Visibility: 10 km
Cloud details: Few Clouds 1067 m
2018/09/19 22:30 LEAM 192230Z AUTO 07003KT 040V100 9999 FEW035/// 25/22 Q1020
 
LEZG - Zaragoza (mil/Ci, Spain
Distance from station: NO 431km
Actualización: 20/09/2018 00:30
Despejado
Despejado
 Viento del calm
Viento: Calma
Temperatura: 22°C
Rocío: 14°C
Humedad: 61%
Barómetro: 1020 hPa
Resumen: Despejado
Visibility: greater than 10 km
2018/09/19 22:30 LEZG 192230Z 00000KT CAVOK 22/14 Q1020
LEMD - Madrid/Barajas, Spain
Distance from station: ONO 234km
Actualización: 20/09/2018 00:30
Despejado
Despejado
 Viento del N
Viento: N 9 km/h
Temperatura: 23°C
Rocío: 13°C
Humedad: 53%
Barómetro: 1022 hPa
Resumen: Despejado
Visibility: greater than 10 km
2018/09/19 22:30 LEMD 192230Z 35005KT CAVOK 23/13 Q1022 NOSIG
 
LEGR - Granada Airport, Spain
Distance from station: OSO 62km
Actualización: 20/09/2018 00:30
Despejado
Despejado
 Viento del varies
Viento: varies 4 km/h
Temperatura: 18°C
Rocío: 18°C
Humedad: 100%
Barómetro: 1023 hPa
Clouds: Despejado
Visibility: 10 km
2018/09/19 22:30 LEGR 192230Z AUTO VRB02KT 9999 NCD 18/18 Q1023
LEMG - Malaga (civ/Mil), Spain
Distance from station: OSO 227km
Actualización: 20/09/2018 00:30
Few Clouds
Few Clouds
 Viento del E
Viento: E 6 km/h
Temperatura: 24°C
Rocío: 21°C
Humedad: 83%
Barómetro: 1021 hPa
Clouds: Few Clouds
Visibility: 10 km
Cloud details: Few Clouds 1067 m
2018/09/19 22:30 LEMG 192230Z 08003KT 050V110 9999 FEW035 24/21 Q1021 NOSIG
 
LEZL - Sevilla (civ/Mil, Spain
Distance from station: S 318km
Actualización: 20/09/2018 00:30
Despejado
Despejado
 Viento del SSO
Viento: SSO 13 km/h
Temperatura: 25°C
Rocío: 20°C
Humedad: 74%
Barómetro: 1018 hPa
Resumen: Despejado
Visibility: greater than 10 km
2018/09/19 22:30 LEZL 192230Z 21007KT 170V240 CAVOK 25/20 Q1018 NOSIG
LEVT - Vitoria, Spain
Distance from station: NO 226km
Actualización: 20/09/2018 00:30
Muy nuboso
Muy nuboso
 Viento del varies
Viento: varies 4 km/h
Temperatura: 19°C
Rocío: 17°C
Humedad: 88%
Barómetro: 1023 hPa
Clouds: Muy nuboso
Visibility: 9 km
Cloud details: Few Clouds 244 m
Muy nuboso 457 m
2018/09/19 22:30 LEVT 192230Z VRB02KT 9000 FEW008 BKN015 19/17 Q1023
 
LEBB - Bilbao/Sondica, Spain
Distance from station: NNO 235km
Actualización: 20/09/2018 00:30
Parcialmente nuboso
Parcialmente nuboso
 Viento del varies
Viento: varies 2 km/h
Temperatura: 19°C
Rocío: 18°C
Humedad: 94%
Barómetro: 1023 hPa
Clouds: Parcialmente nuboso
Visibility: 8 km
Cloud details: Parcialmente nuboso 518 m
Parcialmente nuboso 1067 m
2018/09/19 22:30 LEBB 192230Z VRB01KT 8000 SCT017 SCT035 19/18 Q1023 NOSIG
LESO - San Sebastian/Fu, Spain
Distance from station: N 231km
Actualización: 20/09/2018 00:30
Parcialmente nuboso
Parcialmente nuboso
 Viento del varies
Viento: varies 2 km/h
Temperatura: 20°C
Rocío: 19°C
Humedad: 94%
Barómetro: 1022 hPa
Clouds: Parcialmente nuboso
Visibility: 10 km
Cloud details: Parcialmente nuboso 1128 m
2018/09/19 22:30 LESO 192230Z AUTO VRB01KT 9999 SCT037/// 20/19 Q1022
 
LEVD - Valladolid(Mil/C, Spain
Distance from station: ONO 239km
Actualización: 19/09/2018 21:30
NOT Current
Despejado
Despejado
 Viento del N
Viento: N 6 km/h
Temperatura: 21°C
Rocío: 8°C
Humedad: 43%
Barómetro: 1022 hPa
Resumen: Despejado
Visibility: greater than 10 km
2018/09/19 19:30 LEVD 191930Z 36003KT CAVOK 21/08 Q1022
LESA - Salamanca (civ/M, Spain
Distance from station: ONO 349km
Actualización: 20/09/2018 00:30
Despejado
Despejado
 Viento del ESE
Viento: ESE 4 km/h
Temperatura: 15°C
Rocío: 12°C
Humedad: 82%
Barómetro: 1023 hPa
Clouds: Despejado
Visibility: 10 km
2018/09/19 22:30 LESA 192230Z AUTO 12002KT 9999 NCD 15/12 Q1023
 
LEXJ - Santander/Paraya, Spain
Distance from station: NNO 247km
Actualización: 20/09/2018 00:30
Muy nuboso
Muy nuboso
 Viento del OSO
Viento: OSO 4 km/h
Temperatura: 20°C
Rocío: 20°C
Humedad: 100%
Barómetro: 1022 hPa
Clouds: Muy nuboso
Visibility: 10 km
Cloud details: Parcialmente nuboso 396 m
Muy nuboso 1097 m
2018/09/19 22:30 LEXJ 192230Z 25002KT 9999 SCT013 BKN036 20/20 Q1022
LEAS - Asturias/Aviles, Spain
Distance from station: NO 214km
Actualización: 20/09/2018 00:30
Despejado
Despejado
 Viento del varies
Viento: varies 2 km/h
Temperatura: 16°C
Rocío: 14°C
Humedad: 88%
Barómetro: 1023 hPa
Resumen: Despejado
Visibility: greater than 10 km
2018/09/19 22:30 LEAS 192230Z VRB01KT CAVOK 16/14 Q1023 NOSIG
 
LECO - La Coruna/Alvedr, Spain
Distance from station: ONO 222km
Actualización: 20/09/2018 00:30
Few Clouds
Few Clouds
 Viento del SSE
Viento: SSE 6 km/h
Temperatura: 17°C
Rocío: 16°C
Humedad: 94%
Barómetro: 1022 hPa
Clouds: Few Clouds
Visibility: 10 km
Cloud details: Few Clouds 183 m
2018/09/19 22:30 LECO 192230Z 16003KT 9999 FEW006 17/16 Q1022 TEMPO BKN008
LEVX - Vigo/Peinador, Spain
Distance from station: O 214km
Actualización: 20/09/2018 00:30
Parcialmente nuboso
Parcialmente nuboso
 Viento del ONO
Viento: ONO 6 km/h
Temperatura: 16°C
Rocío: 16°C
Humedad: 100%
Barómetro: 1023 hPa
Clouds: Parcialmente nuboso
Visibility: 8 km
Cloud details: Few Clouds 91 m
Parcialmente nuboso 183 m
2018/09/19 22:30 LEVX 192230Z 30003KT 8000 FEW003 SCT006 16/16 Q1023 NOSIG